createdAt,value
2022-08-29T07:55:21.863Z,6.53
2022-08-29T07:57:51.625Z,9.90
2022-08-29T08:00:19.053Z,8.03
2022-08-29T08:02:46.119Z,7.83
2022-08-29T08:05:12.967Z,10.30
2022-08-29T08:07:40.361Z,9.70
2022-08-29T08:10:08.677Z,7.90
2022-08-29T08:12:35.269Z,7.73
2022-08-29T08:15:03.340Z,10.60
2022-08-29T08:17:30.033Z,7.40
2022-08-29T08:19:56.664Z,6.53
2022-08-29T08:22:23.294Z,8.80
2022-08-29T08:24:50.039Z,13.17
2022-08-29T08:27:16.684Z,9.43
2022-08-29T08:29:44.231Z,10.10
2022-08-29T08:32:11.109Z,5.77
2022-08-29T08:34:37.835Z,9.53
2022-08-29T08:37:08.214Z,9.47
2022-08-29T08:39:35.952Z,9.20
2022-08-29T08:42:20.713Z,8.97
2022-08-29T08:45:09.824Z,9.47
2022-08-29T08:47:45.550Z,10.37
2022-08-29T08:50:18.439Z,10.00
2022-08-29T08:52:53.804Z,7.70
2022-08-29T08:55:42.648Z,11.20
2022-08-29T08:58:30.643Z,7.37
2022-08-29T09:01:04.780Z,7.27
2022-08-29T09:03:53.319Z,7.87
2022-08-29T09:06:57.886Z,8.23
2022-08-29T09:09:38.895Z,10.43
2022-08-29T09:12:38.974Z,6.70
2022-08-29T09:15:16.972Z,6.53
2022-08-29T09:17:48.796Z,7.90
2022-08-29T09:20:23.111Z,7.60
2022-08-29T09:23:03.566Z,5.60
2022-08-29T09:25:31.360Z,7.60
2022-08-29T09:27:58.906Z,7.97
2022-08-29T09:30:29.507Z,8.27
2022-08-29T09:33:02.146Z,7.17
2022-08-29T09:35:42.424Z,10.77
2022-08-29T09:38:18.106Z,8.30
2022-08-29T09:40:47.756Z,6.63
2022-08-29T09:43:27.703Z,5.70
2022-08-29T09:46:08.690Z,8.50
2022-08-29T09:48:37.843Z,9.87
2022-08-29T09:51:15.497Z,7.20
2022-08-29T09:53:43.632Z,7.60
2022-08-29T09:56:17.411Z,8.10
2022-08-29T09:58:44.118Z,10.67
2022-08-29T10:01:18.585Z,8.03
2022-08-29T10:03:55.455Z,5.73
2022-08-29T10:06:25.657Z,6.33
2022-08-29T10:09:09.412Z,7.60
2022-08-29T10:11:57.117Z,9.50
2022-08-29T10:14:35.795Z,6.33
2022-08-29T10:17:22.331Z,5.10
2022-08-29T10:19:49.242Z,8.77
2022-08-29T10:22:41.995Z,6.43
2022-08-29T10:25:11.893Z,7.83
2022-08-29T10:27:57.830Z,6.83
2022-08-29T10:30:32.852Z,5.67
2022-08-29T10:33:21.017Z,8.53
2022-08-29T10:36:01.194Z,7.50
2022-08-29T10:38:47.158Z,6.43
2022-08-29T10:41:33.412Z,6.10
2022-08-29T10:44:26.333Z,8.37
2022-08-29T10:47:30.449Z,5.63
2022-08-29T10:50:27.694Z,6.97
2022-08-29T10:53:16.839Z,5.13
2022-08-29T10:56:06.989Z,4.83
2022-08-29T10:58:42.827Z,5.00
2022-08-29T11:01:17.481Z,7.27
2022-08-29T11:04:07.149Z,6.57
2022-08-29T11:06:53.325Z,7.40
2022-08-29T11:09:28.975Z,7.13
2022-08-29T11:12:17.715Z,8.13
2022-08-29T11:14:56.454Z,6.67
2022-08-29T11:17:29.661Z,5.17
2022-08-29T11:20:02.270Z,8.30
2022-08-29T11:22:37.364Z,6.53
2022-08-29T11:25:15.906Z,7.00
2022-08-29T11:28:04.333Z,6.23
2022-08-29T11:30:58.866Z,7.67
2022-08-29T11:33:45.127Z,5.63
2022-08-29T11:36:41.420Z,6.73
2022-08-29T11:39:30.096Z,6.40
2022-08-29T11:42:01.375Z,6.23
2022-08-29T11:44:36.363Z,5.00
2022-08-29T11:47:41.441Z,5.67
2022-08-29T11:50:14.816Z,6.60
2022-08-29T11:52:54.923Z,5.07
2022-08-29T11:55:26.891Z,5.93
2022-08-29T11:58:01.915Z,5.60
2022-08-29T12:00:41.703Z,5.13
2022-08-29T12:03:33.498Z,9.37
2022-08-29T12:06:22.527Z,6.03
2022-08-29T12:09:15.878Z,6.80
2022-08-29T12:12:08.607Z,6.40
2022-08-29T12:14:38.373Z,6.43
2022-08-29T12:17:51.357Z,4.67
2022-08-29T12:20:34.089Z,6.17
2022-08-29T12:23:06.400Z,8.23
2022-08-29T12:26:15.810Z,4.93
2022-08-29T12:28:46.490Z,6.37
2022-08-29T12:31:51.321Z,5.87
2022-08-29T12:35:00.687Z,4.13
2022-08-29T12:37:46.539Z,7.80
2022-08-29T12:40:21.938Z,4.80
2022-08-29T12:43:08.133Z,7.30
2022-08-29T12:45:36.198Z,4.77
2022-08-29T12:48:15.454Z,3.90
2022-08-29T12:50:45.822Z,5.90
2022-08-29T12:53:27.798Z,5.40
2022-08-29T12:56:01.339Z,4.97
2022-08-29T12:58:38.073Z,6.33
2022-08-29T13:01:21.814Z,7.00
2022-08-29T13:03:57.443Z,6.57
2022-08-29T13:06:24.290Z,3.93
2022-08-29T13:08:51.057Z,5.17
2022-08-29T13:11:22.475Z,4.67
2022-08-29T13:13:49.685Z,4.30
2022-08-29T13:16:26.237Z,4.97
2022-08-29T13:19:10.087Z,3.33
2022-08-29T13:21:37.411Z,7.87
2022-08-29T13:24:10.817Z,5.20
2022-08-29T13:26:43.378Z,6.30
2022-08-29T13:29:29.301Z,4.27
2022-08-29T13:32:24.376Z,4.80
2022-08-29T13:35:19.033Z,4.83
2022-08-29T13:38:06.535Z,4.23
2022-08-29T13:40:41.745Z,5.40
2022-08-29T13:43:31.282Z,4.23
2022-08-29T13:46:14.899Z,3.70
2022-08-29T13:48:42.885Z,5.50
2022-08-29T13:51:10.030Z,3.43
2022-08-29T13:53:37.131Z,3.67
2022-08-29T13:56:04.339Z,4.27
2022-08-29T13:58:31.988Z,4.97
2022-08-29T14:00:59.227Z,5.07
2022-08-29T14:03:25.999Z,5.67
2022-08-29T14:05:56.550Z,3.23
2022-08-29T14:08:24.585Z,7.33
2022-08-29T14:10:52.049Z,4.80
2022-08-29T14:13:18.927Z,3.67
2022-08-29T14:15:45.809Z,3.83
2022-08-29T14:18:12.896Z,3.53
2022-08-29T14:20:39.822Z,3.70
2022-08-29T14:23:06.601Z,5.13
2022-08-29T14:25:33.520Z,2.90
2022-08-29T14:28:00.189Z,4.13
2022-08-29T14:30:26.942Z,4.47
2022-08-29T14:32:53.578Z,7.33
2022-08-29T14:35:26.748Z,4.77
2022-08-29T14:37:58.648Z,3.87
2022-08-29T14:40:25.780Z,5.60
2022-08-29T14:42:52.544Z,4.03
2022-08-29T14:45:19.219Z,2.80
2022-08-29T14:47:47.198Z,3.33
2022-08-29T14:50:15.629Z,3.03
2022-08-29T14:52:42.744Z,3.00
2022-08-29T14:55:10.089Z,3.73
2022-08-29T14:57:37.221Z,3.47
2022-08-29T15:00:11.875Z,4.13
2022-08-29T15:02:39.279Z,2.60
2022-08-29T15:05:06.468Z,2.30
2022-08-29T15:07:33.192Z,2.90
2022-08-29T15:10:00.201Z,4.10
2022-08-29T15:12:30.310Z,2.80
2022-08-29T15:14:56.964Z,2.30
2022-08-29T15:17:24.583Z,3.03
2022-08-29T15:20:34.137Z,2.10
2022-08-29T15:22:39.882Z,3.03
2022-08-29T15:25:07.179Z,2.27
2022-08-29T15:27:33.942Z,2.10
2022-08-29T15:30:00.635Z,1.97
2022-08-29T15:32:27.327Z,2.30
2022-08-29T15:34:54.008Z,3.33
2022-08-29T15:37:22.590Z,2.17
2022-08-29T15:39:54.737Z,2.20
2022-08-29T15:42:28.463Z,3.47
2022-08-29T15:44:55.588Z,1.80
2022-08-29T15:47:25.692Z,2.73
2022-08-29T15:49:53.480Z,2.00
2022-08-29T15:52:20.162Z,2.60
2022-08-29T15:54:46.771Z,3.17
2022-08-29T15:57:13.519Z,3.03
2022-08-29T15:59:57.692Z,1.90
2022-08-29T16:02:26.288Z,1.77
2022-08-29T16:04:56.800Z,1.70
2022-08-29T16:07:29.377Z,2.70
2022-08-29T16:09:56.843Z,2.70
2022-08-29T16:12:23.462Z,1.47
2022-08-29T16:15:09.444Z,3.17
2022-08-29T16:17:37.103Z,1.50
2022-08-29T16:20:05.340Z,3.10
2022-08-29T16:22:33.922Z,1.60
2022-08-29T16:25:01.368Z,1.60
2022-08-29T16:27:27.976Z,1.07
2022-08-29T16:29:55.216Z,1.20
2022-08-29T16:32:21.901Z,1.60
2022-08-29T16:34:48.574Z,3.40
2022-08-29T16:37:15.542Z,2.73
2022-08-29T16:39:42.130Z,1.93
2022-08-29T16:42:12.050Z,1.90
2022-08-29T16:44:39.577Z,1.50
2022-08-29T16:47:06.451Z,1.20
2022-08-29T16:49:33.795Z,1.30
2022-08-29T16:52:00.552Z,1.53
2022-08-29T16:54:27.519Z,1.43
2022-08-29T16:56:55.194Z,1.10
2022-08-29T16:59:22.286Z,1.13
2022-08-29T17:01:51.175Z,2.17
2022-08-29T17:04:24.475Z,1.53
2022-08-29T17:06:52.389Z,1.80
2022-08-29T17:09:21.757Z,1.63
2022-08-29T17:11:49.538Z,2.10
2022-08-29T17:14:18.039Z,4.60
2022-08-29T17:16:46.875Z,1.30
2022-08-29T17:19:15.038Z,2.10
2022-08-29T17:21:42.904Z,1.70
2022-08-29T17:24:10.920Z,2.30
2022-08-29T17:26:40.793Z,1.40
2022-08-29T17:29:08.945Z,1.93
2022-08-29T17:31:38.900Z,1.63
2022-08-29T17:34:07.817Z,1.57
2022-08-29T17:36:36.618Z,1.30
2022-08-29T17:39:05.545Z,1.40
2022-08-29T17:41:33.193Z,1.23
2022-08-29T17:44:01.654Z,2.20
2022-08-29T17:46:29.608Z,1.57
2022-08-29T17:48:56.519Z,1.70
2022-08-29T17:51:23.155Z,1.50
2022-08-29T17:53:50.966Z,1.30
2022-08-29T17:56:25.007Z,1.40
2022-08-29T17:58:51.614Z,1.70
2022-08-29T18:01:18.265Z,1.97
2022-08-29T18:03:45.576Z,1.90
2022-08-29T18:06:14.456Z,1.40
2022-08-29T18:08:42.306Z,3.43
2022-08-29T18:11:14.870Z,1.63
2022-08-29T18:13:41.743Z,1.53
2022-08-29T18:16:09.440Z,3.53
2022-08-29T18:18:37.478Z,1.43
2022-08-29T18:21:04.499Z,2.10
2022-08-29T18:23:31.157Z,1.50
2022-08-29T18:25:57.812Z,1.50
2022-08-29T18:28:24.416Z,1.90
2022-08-29T18:30:54.703Z,3.00
2022-08-29T18:33:21.394Z,3.40
2022-08-29T18:35:48.310Z,4.50
2022-08-29T18:38:15.934Z,2.17
2022-08-29T18:40:42.857Z,1.90
2022-08-29T18:43:10.121Z,6.47
2022-08-29T18:45:39.425Z,3.00
2022-08-29T18:48:06.959Z,2.97
2022-08-29T18:50:36.663Z,2.73
2022-08-29T18:53:24.078Z,4.93
2022-08-29T18:55:53.915Z,5.07
2022-08-29T18:58:26.963Z,4.17
2022-08-29T19:00:54.467Z,3.20
2022-08-29T19:03:21.812Z,3.70
2022-08-29T19:05:50.559Z,3.20
2022-08-29T19:08:24.682Z,3.47
2022-08-29T19:10:55.280Z,4.80
2022-08-29T19:13:22.788Z,5.03
2022-08-29T19:16:01.707Z,6.03
2022-08-29T19:18:28.765Z,5.17
2022-08-29T19:21:06.638Z,3.17
2022-08-29T19:23:40.552Z,4.37
2022-08-29T19:26:13.336Z,4.30
2022-08-29T19:28:41.567Z,3.43
2022-08-29T19:31:08.596Z,2.43
2022-08-29T19:33:36.314Z,2.73
2022-08-29T19:36:05.942Z,5.90
2022-08-29T19:38:32.917Z,9.13
2022-08-29T19:40:59.766Z,3.77
2022-08-29T19:43:29.614Z,2.20
2022-08-29T19:45:57.800Z,2.80
2022-08-29T19:48:26.946Z,3.23
2022-08-29T19:50:54.129Z,2.30
2022-08-29T19:53:26.365Z,2.10
2022-08-29T19:55:55.161Z,3.20
2022-08-29T19:58:23.622Z,2.67
2022-08-29T20:00:58.953Z,2.97
2022-08-29T20:03:27.505Z,2.63
2022-08-29T20:05:55.136Z,1.83
2022-08-29T20:08:21.791Z,2.13
2022-08-29T20:10:49.633Z,3.00
2022-08-29T20:13:17.365Z,2.40
2022-08-29T20:15:44.179Z,2.37
2022-08-29T20:18:10.781Z,2.17
2022-08-29T20:20:39.638Z,2.40
2022-08-29T20:23:07.215Z,2.00
2022-08-29T20:25:34.815Z,2.13
2022-08-29T20:28:02.080Z,2.27
2022-08-29T20:30:31.307Z,3.33
2022-08-29T20:32:57.928Z,2.47
2022-08-29T20:35:43.751Z,1.57
2022-08-29T20:38:10.997Z,1.37
2022-08-29T20:40:39.554Z,1.60
2022-08-29T20:43:06.869Z,1.90
2022-08-29T20:45:33.861Z,3.47
2022-08-29T20:48:01.762Z,1.50
2022-08-29T20:52:55.902Z,1.83
2022-08-29T20:55:22.933Z,1.60
2022-08-29T20:57:49.713Z,1.87
2022-08-29T21:00:17.274Z,1.50
2022-08-29T21:03:02.483Z,1.67
2022-08-29T21:05:42.383Z,2.30
2022-08-29T21:08:16.577Z,1.67
2022-08-29T21:10:44.606Z,1.90
2022-08-29T21:13:11.252Z,2.20
2022-08-29T21:15:39.745Z,1.80
2022-08-29T21:18:07.514Z,3.43
2022-08-29T21:20:54.038Z,1.80
2022-08-29T21:23:22.785Z,1.30
2022-08-29T21:25:57.669Z,1.70
2022-08-29T21:28:25.618Z,1.40
2022-08-29T21:30:52.783Z,1.70
2022-08-29T21:33:20.619Z,2.00
2022-08-29T21:35:50.216Z,1.40
2022-08-29T21:38:17.565Z,3.27
2022-08-29T21:40:50.642Z,2.03
2022-08-29T21:43:19.331Z,1.73
2022-08-29T21:45:46.095Z,1.87
2022-08-29T21:48:12.715Z,1.40
2022-08-29T21:50:39.364Z,2.60
2022-08-29T21:53:05.945Z,1.93
2022-08-29T21:55:33.013Z,2.10
2022-08-29T21:58:00.661Z,1.60
2022-08-29T22:00:33.205Z,1.70
2022-08-29T22:03:05.830Z,1.77
